Latest Weather Observations for Scotts Peak

IDT60801

Issued at 9:41 pm EST Friday 26 April 2019 (issued every 10 minutes, with the page automatically refreshed every 10 minutes)

About weather observations | Map of weather stations | Latest weather observations for TAS | Other Formats
Station Details ID: 097083 Name: SCOTTS PEAK DAM Lat: -43.04 Lon: 146.27 Height: 408.0 m
Data from the previous 72 hours. | See also: Recent months at Scotts Peak
Date/Time
EST
Temp
°C
App
Temp
°C
Dew
Point
°C
Rel
Hum
%
Delta-T
°C
Wind Press
QNH
hPa
Press
MSL
hPa
Rain since
9am
mm
Dir  Spd
km/h
Gust
km/h
Spd
kts
Gust
kts
26/09:30pm 4.0 -5.1 2.0 87 0.8 WNW 39 59 21 32 - - 13.8
26/09:00pm 3.0 -6.0 2.4 96 0.2 W 39 61 21 33 - - 13.6
26/08:30pm 4.0 -5.7 2.8 92 0.5 W 43 63 23 34 - - 12.0
26/08:00pm 3.6 -5.4 2.4 92 0.5 WNW 39 61 21 33 - - 12.0
26/07:30pm 3.0 -7.7 2.3 95 0.3 W 48 74 26 40 - - 11.4
26/07:28pm 3.0 -7.0 2.1 94 0.4 W 44 74 24 40 - - 11.4
26/07:20pm 4.0 -3.6 2.7 91 0.5 W 32 56 17 30 - - 10.4
26/07:09pm 3.6 -4.0 2.6 93 0.4 W 32 52 17 28 - - 10.4
26/07:00pm 3.2 -5.7 2.8 97 0.2 WNW 39 67 21 36 - - 10.4
26/06:46pm 3.3 -6.4 2.6 95 0.3 W 43 67 23 36 - - 9.8
26/06:30pm 4.0 -3.5 1.4 83 1.0 W 30 48 16 26 - - 9.0
26/06:00pm 3.5 -5.1 2.6 94 0.4 W 37 63 20 34 - - 9.0
26/05:55pm 3.5 -5.1 2.5 93 0.4 W 37 63 20 34 - - 9.0
26/05:30pm 3.4 -4.3 2.5 94 0.4 WNW 32 50 17 27 - - 8.6
26/05:17pm 3.1 -5.1 2.5 96 0.2 W 35 61 19 33 - - 8.6
26/05:12pm 3.1 -4.9 1.9 92 0.5 W 33 61 18 33 - - 8.4
26/05:11pm 3.2 -4.6 1.9 91 0.5 WNW 32 61 17 33 - - 8.2
26/05:10pm 3.5 -4.2 2.3 92 0.5 WNW 32 57 17 31 - - 8.0
26/05:00pm 4.0 -3.7 2.5 90 0.6 W 32 46 17 25 - - 7.8
26/04:39pm 4.0 -3.7 2.4 89 0.7 W 32 50 17 27 - - 7.2
26/04:30pm 3.7 -6.1 2.5 92 0.5 WNW 43 67 23 36 - - 7.2
26/04:28pm 3.8 -6.0 2.3 90 0.6 WNW 43 67 23 36 - - 7.2
26/04:25pm 4.1 -5.7 2.3 88 0.7 WNW 43 67 23 36 - - 7.2
26/04:22pm 3.7 -5.7 2.1 89 0.7 WNW 41 67 22 36 - - 7.2
26/04:13pm 4.0 -3.8 2.8 92 0.5 WNW 33 52 18 28 - - 7.2
26/04:00pm 3.9 -4.8 1.8 86 0.8 WNW 37 54 20 29 - - 6.8
26/03:30pm 4.1 -3.6 2.3 88 0.7 W 32 52 17 28 - - 6.4
26/03:06pm 3.1 -5.7 1.5 89 0.6 W 37 56 20 30 - - 6.4
26/03:04pm 3.1 -5.7 1.2 87 0.7 W 37 56 20 30 - - 6.2
26/03:01pm 3.9 -4.9 1.3 83 1.0 WNW 37 56 20 30 - - 5.6
26/03:00pm 4.2 -4.5 1.7 84 1.0 WNW 37 54 20 29 - - 5.6
26/02:30pm 4.8 -5.5 2.5 85 1.0 W 46 78 25 42 - - 5.2
26/02:00pm 4.0 -8.5 1.7 85 0.9 WNW 57 83 31 45 - - 5.2
26/01:30pm 3.0 -8.2 2.0 93 0.4 WNW 50 74 27 40 - - 5.0
26/01:29pm 2.9 -7.9 1.9 93 0.4 WNW 48 74 26 40 - - 4.8
26/01:08pm 6.3 -0.7 4.0 85 1.0 WNW 30 52 16 28 - - 3.8
26/01:00pm 6.0 0.3 5.1 94 0.4 W 24 43 13 23 - - 3.8
26/12:43pm 4.6 -4.8 4.3 98 0.1 W 43 76 23 41 - - 3.8
26/12:36pm 3.3 -6.1 2.4 94 0.4 WNW 41 76 22 41 - - 3.6
26/12:32pm 4.1 -3.4 3.5 96 0.3 WNW 32 54 17 29 - - 3.2
26/12:30pm 4.1 -3.3 3.8 98 0.1 WNW 32 44 17 24 - - 3.2
26/12:14pm 4.1 -3.4 3.4 95 0.3 WNW 32 50 17 27 - - 3.0
26/12:00pm 3.8 -3.7 3.4 97 0.2 WNW 32 46 17 25 - - 2.8
26/11:37am 4.5 -6.0 3.6 94 0.4 NW 48 72 26 39 - - 2.2
26/11:30am 5.5 -4.5 4.3 92 0.5 NW 46 57 25 31 - - 2.0
26/11:00am 4.0 -5.7 3.7 98 0.1 WNW 44 61 24 33 - - 2.0
26/10:47am 3.5 -8.2 3.4 99 0.0 WNW 54 72 29 39 - - 1.8
26/10:37am 3.7 -6.1 3.1 96 0.3 WNW 44 72 24 39 - - 1.6
26/10:30am 3.7 -5.2 2.8 94 0.4 W 39 63 21 34 - - 1.4
26/10:20am 3.6 -8.7 2.1 90 0.6 W 56 89 30 48 - - 1.2
26/10:19am 3.7 -8.8 2.1 89 0.7 W 57 89 31 48 - - 1.2
26/10:00am 4.9 -6.7 3.7 92 0.5 WNW 54 74 29 40 - - 0.4
26/09:30am 4.4 -6.6 3.2 92 0.5 WNW 50 70 27 38 - - 0.2
26/09:00am 4.8 -5.8 3.0 88 0.8 WNW 48 67 26 36 - - 17.4
26/08:38am 4.5 -6.5 2.8 89 0.7 WNW 50 69 27 37 - - 17.4
26/08:30am 4.4 -5.8 3.2 92 0.5 WNW 46 63 25 34 - - 17.4
26/08:11am 4.4 -2.5 4.4 100 0.0 WNW 30 50 16 27 - - 16.6
26/08:00am 3.9 -2.4 3.8 99 0.0 WSW 26 44 14 24 - - 16.6
26/07:52am 4.4 -6.0 4.3 99 0.0 W 48 76 26 41 - - 16.0
26/07:30am 4.4 -7.1 4.4 100 0.0 WNW 54 83 29 45 - - 15.8
26/07:20am 4.5 -7.5 4.5 100 0.0 NW 57 82 31 44 - - 15.8
26/07:16am 4.1 -7.5 4.1 100 0.0 NW 54 72 29 39 - - 15.8
26/07:02am 3.4 -5.8 3.4 100 0.0 NW 41 59 22 32 - - 15.6
26/07:00am 3.6 -5.2 3.6 100 0.0 NW 39 50 21 27 - - 15.4
26/06:30am 3.3 -8.4 3.2 99 0.0 WNW 54 85 29 46 - - 14.0
26/06:24am 3.4 -6.8 3.3 99 0.0 WNW 46 85 25 46 - - 13.6
26/06:05am 4.5 -5.9 4.1 97 0.2 WNW 48 67 26 36 - - 12.0
26/06:00am 4.0 -5.7 3.9 99 0.0 WNW 44 57 24 31 - - 12.0
26/05:48am 3.7 -8.3 3.7 100 0.0 NW 56 74 30 40 - - 11.8
26/05:30am 4.4 -7.5 4.4 100 0.0 WNW 56 72 30 39 - - 11.6
26/05:22am 4.4 -6.7 4.4 100 0.0 WNW 52 70 28 38 - - 11.6
26/05:16am 4.5 -6.2 4.5 100 0.0 NW 50 63 27 34 - - 11.4
26/05:00am 3.8 -9.9 3.8 100 0.0 NW 65 85 35 46 - - 11.4
26/04:30am 4.5 -9.8 4.5 100 0.0 NW 69 91 37 49 - - 10.6
26/04:01am 4.3 -10.6 4.3 100 0.0 NW 72 91 39 49 - - 10.6
26/04:00am 4.3 -11.0 4.3 100 0.0 NW 74 91 40 49 - - 10.6
26/03:47am 4.6 -9.9 4.5 99 0.0 NW 70 106 38 57 - - 10.6
26/03:30am 5.3 -7.1 4.9 97 0.2 NW 59 80 32 43 - - 10.0
26/03:24am 5.3 -5.6 5.3 100 0.0 WNW 52 72 28 39 - - 10.0
26/03:00am 4.9 -7.5 4.9 100 0.0 NW 59 70 32 38 - - 9.6
26/02:30am 5.4 -7.8 4.4 93 0.4 NW 63 78 34 42 - - 8.8
26/02:00am 5.5 -7.9 3.5 87 0.9 WNW 63 83 34 45 - - 8.8
26/01:30am 5.8 -8.5 5.8 100 0.0 WNW 70 96 38 52 - - 8.8
26/01:00am 6.6 -6.9 6.6 100 0.0 WNW 67 85 36 46 - - 8.4
26/12:30am 6.6 -8.6 6.6 100 0.0 WNW 76 109 41 59 - - 7.6
26/12:00am 7.9 -6.6 7.9 100 0.0 NW 74 98 40 53 - - 6.0
 
Date/Time
EST
Temp
°C
App
Temp
°C
Dew
Point
°C
Rel
Hum
%
Delta-T
°C
Wind Press
QNH
hPa
Press
MSL
hPa
Rain since
9am
mm
Dir  Spd
km/h
Gust
km/h
Spd
kts
Gust
kts
25/11:30pm 8.7 -5.3 8.7 100 0.0 NW 72 95 39 51 - - 4.4
25/11:23pm 8.7 -6.8 8.7 100 0.0 NW 80 111 43 60 - - 4.2
25/11:11pm 8.9 -8.3 8.8 99 0.0 NW 89 126 48 68 - - 4.0
25/11:04pm 8.9 -5.4 8.9 100 0.0 NW 74 126 40 68 - - 4.0
25/11:00pm 8.8 -3.4 8.8 100 0.0 NW 63 95 34 51 - - 3.8
25/10:30pm 9.1 -3.1 9.1 100 0.0 NW 63 95 34 51 - - 2.6
25/10:00pm 8.9 -3.3 8.9 100 0.0 NNW 63 93 34 50 - - 1.8
25/09:30pm 9.1 -3.5 9.0 99 0.1 NNW 65 91 35 49 - - 1.4
25/09:17pm 9.3 -5.1 8.5 95 0.4 NW 74 106 40 57 - - 1.4
25/09:03pm 9.2 -2.5 9.2 100 0.0 NW 61 80 33 43 - - 1.2
25/09:00pm 9.2 -3.3 9.2 100 0.0 NW 65 80 35 43 - - 1.2
25/08:41pm 9.6 -2.6 9.0 96 0.3 NW 63 89 34 48 - - 1.2
25/08:40pm 9.6 -2.6 9.0 96 0.3 NW 63 89 34 48 - - 1.2
25/08:30pm 9.8 -0.5 9.8 100 0.0 NW 54 74 29 40 - - 1.2
25/08:07pm 10.0 0.9 9.9 99 0.1 NW 48 67 26 36 - - 1.2
25/08:00pm 9.8 0.3 9.8 100 0.0 NW 50 57 27 31 - - 1.2
25/07:30pm 9.7 -2.9 8.9 95 0.4 NNW 65 85 35 46 - - 1.2
25/07:01pm 9.3 -3.8 8.4 94 0.4 NNW 67 85 36 46 - - 1.2
25/07:00pm 9.3 -3.8 8.5 95 0.4 NNW 67 85 36 46 - - 1.2
25/06:53pm 9.4 -3.2 8.8 96 0.3 NNW 65 78 35 42 - - 1.2
25/06:36pm 9.2 -0.5 9.1 99 0.1 NW 50 69 27 37 - - 1.2
25/06:30pm 9.2 -1.8 9.1 99 0.1 NNW 57 69 31 37 - - 1.2
25/06:10pm 8.9 -2.2 8.9 100 0.0 NNW 57 82 31 44 - - 1.0
25/06:00pm 9.1 -1.3 9.1 100 0.0 NW 54 67 29 36 - - 1.0
25/05:44pm 9.4 -1.5 9.4 100 0.0 NW 57 89 31 48 - - 1.0
25/05:41pm 9.5 -0.8 9.5 100 0.0 NW 54 89 29 48 - - 1.0
25/05:39pm 9.6 0.8 9.6 100 0.0 NW 46 89 25 48 - - 1.0
25/05:35pm 9.7 2.3 9.7 100 0.0 NW 39 57 21 31 - - 0.8
25/05:30pm 9.7 2.6 9.7 100 0.0 NW 37 44 20 24 - - 0.6
25/05:00pm 9.7 1.5 9.7 100 0.0 NW 43 56 23 30 - - 0.0
25/04:34pm 9.8 0.5 9.0 95 0.4 NNW 48 67 26 36 - - 0.0
25/04:30pm 9.8 0.4 8.7 93 0.6 NNW 48 59 26 32 - - 0.0
25/04:00pm 10.6 1.0 7.8 83 1.4 NNW 48 65 26 35 - - 0.0
25/03:43pm 10.9 0.2 6.6 75 2.1 NW 52 72 28 39 - - 0.0
25/03:38pm 11.1 -0.8 7.2 77 1.9 NW 59 89 32 48 - - 0.0
25/03:32pm 11.1 -2.3 7.2 77 1.9 NW 67 89 36 48 - - 0.0
25/03:30pm 11.0 -2.1 6.6 74 2.1 NW 65 89 35 48 - - 0.0
25/03:26pm 11.1 0.6 7.2 77 1.9 NNW 52 83 28 45 - - 0.0
25/03:00pm 11.5 3.1 7.4 76 2.0 NW 41 67 22 36 - - 0.0
25/02:58pm 11.6 4.4 7.5 76 2.0 NW 35 67 19 36 - - 0.0
25/02:40pm 11.4 5.2 7.7 78 1.8 NW 30 48 16 26 - - 0.0
25/02:30pm 11.6 3.2 7.3 75 2.1 NNW 41 72 22 39 - - 0.0
25/02:10pm 12.2 3.1 8.3 77 2.0 NNW 46 72 25 39 - - 0.0
25/02:06pm 11.5 3.4 7.2 75 2.1 NNW 39 72 21 39 - - 0.0
25/02:05pm 11.7 4.4 7.2 74 2.2 NNW 35 70 19 38 - - 0.0
25/02:00pm 12.0 5.5 8.1 77 2.0 NW 32 48 17 26 - - 0.0
25/01:51pm 12.2 5.0 7.5 73 2.3 NW 35 56 19 30 - - 0.0
25/01:47pm 11.8 4.4 6.9 72 2.4 NW 35 56 19 30 - - 0.0
25/01:30pm 11.9 3.1 7.4 74 2.2 NW 43 61 23 33 - - 0.0
25/01:09pm 11.5 3.6 7.8 78 1.8 NNW 39 57 21 31 - - 0.0
25/01:00pm 11.1 4.5 7.8 80 1.6 NW 32 44 17 24 - - 0.0
25/12:30pm 9.8 3.8 7.1 83 1.3 WNW 28 35 15 19 - - 0.0
25/12:00pm 10.1 2.7 6.6 79 1.7 NW 35 52 19 28 - - 0.0
25/11:40am 10.2 1.1 5.8 74 2.1 NW 43 65 23 35 - - 0.0
25/11:30am 9.8 0.7 5.8 76 1.9 NW 43 57 23 31 - - 0.0
25/11:00am 9.5 0.2 5.9 78 1.7 WNW 44 67 24 36 - - 0.0
25/10:32am 9.4 0.1 5.2 75 1.9 NW 43 61 23 33 - - 0.0
25/10:30am 9.4 0.7 5.8 78 1.7 NW 41 57 22 31 - - 0.0
25/10:27am 9.2 0.8 5.6 78 1.7 NW 39 57 21 31 - - 0.0
25/10:00am 9.1 0.2 5.3 77 1.8 WNW 41 54 22 29 - - 0.0
25/09:30am 9.3 -1.0 6.6 83 1.3 WNW 50 74 27 40 - - 0.0
25/09:02am 8.5 -1.3 7.1 91 0.7 WNW 48 67 26 36 - - 0.0
25/09:00am 8.5 -1.4 6.8 89 0.8 WNW 48 61 26 33 - - 6.0
25/08:35am 8.2 -2.7 7.4 95 0.4 WNW 54 80 29 43 - - 6.0
25/08:30am 8.0 -1.6 8.0 100 0.0 NW 48 59 26 32 - - 6.0
25/08:23am 7.9 -1.3 7.9 100 0.0 WNW 46 65 25 35 - - 6.0
25/08:00am 8.1 -1.5 8.1 100 0.0 WNW 48 61 26 33 - - 6.0
25/07:30am 8.5 0.8 8.5 100 0.0 WNW 39 48 21 26 - - 5.6
25/07:00am 8.6 2.6 8.6 100 0.0 WNW 30 43 16 23 - - 4.8
25/06:30am 8.7 1.8 8.7 100 0.0 WNW 35 50 19 27 - - 4.4
25/06:00am 8.7 2.1 8.7 100 0.0 NW 33 56 18 30 - - 4.4
25/05:31am 8.6 -0.8 8.6 100 0.0 NW 48 67 26 36 - - 4.4
25/05:30am 8.6 -1.2 8.6 100 0.0 NW 50 67 27 36 - - 4.4
25/05:16am 8.5 0.0 8.5 100 0.0 WNW 43 63 23 34 - - 4.2
25/05:00am 8.6 0.5 8.6 100 0.0 NW 41 57 22 31 - - 4.0
25/04:30am 8.4 -1.1 8.4 100 0.0 NW 48 70 26 38 - - 3.8
25/04:21am 8.4 -0.7 8.4 100 0.0 NW 46 63 25 34 - - 3.8
25/04:18am 8.4 -1.1 8.4 100 0.0 NW 48 67 26 36 - - 3.6
25/04:00am 8.1 -3.9 8.1 100 0.0 NW 61 82 33 44 - - 3.6
25/03:51am 8.1 -1.1 8.1 100 0.0 NW 46 82 25 44 - - 3.6
25/03:50am 8.1 -0.7 8.1 100 0.0 NW 44 63 24 34 - - 3.6
25/03:30am 8.1 -2.2 8.1 100 0.0 NW 52 67 28 36 - - 3.4
25/03:09am 8.0 -2.9 7.2 95 0.4 NW 54 72 29 39 - - 3.4
25/03:00am 8.1 -3.6 6.2 88 0.9 NW 57 72 31 39 - - 3.4
25/02:33am 8.0 -4.5 7.7 98 0.1 WNW 63 85 34 46 - - 3.4
25/02:30am 8.3 -4.3 7.4 94 0.4 WNW 63 85 34 46 - - 3.4
25/02:29am 8.1 -4.4 7.7 97 0.2 WNW 63 85 34 46 - - 3.4
25/02:03am 8.3 -2.3 8.3 100 0.0 WNW 54 72 29 39 - - 3.4
25/02:00am 8.3 -2.0 8.3 100 0.0 WNW 52 65 28 35 - - 3.4
25/01:30am 8.5 -1.7 8.5 100 0.0 NW 52 65 28 35 - - 2.4
25/01:00am 9.1 -4.0 6.7 85 1.1 NW 65 89 35 48 - - 1.6
25/12:30am 8.7 -3.6 8.4 98 0.1 NW 63 85 34 46 - - 1.6
25/12:14am 8.7 -4.9 8.6 99 0.0 NW 70 96 38 52 - - 1.6
25/12:00am 9.1 -7.1 8.2 94 0.4 NW 83 104 45 56 - - 1.4
 
Date/Time
EST
Temp
°C
App
Temp
°C
Dew
Point
°C
Rel
Hum
%
Delta-T
°C
Wind Press
QNH
hPa
Press
MSL
hPa
Rain since
9am
mm
Dir  Spd
km/h
Gust
km/h
Spd
kts
Gust
kts
24/11:30pm 8.9 -7.1 8.9 100 0.0 NW 83 115 45 62 - - 1.4
24/11:15pm 9.1 -5.9 9.1 100 0.0 NW 78 104 42 56 - - 1.4
24/11:08pm 9.7 -3.1 9.4 98 0.2 NW 67 96 36 52 - - 1.0
24/11:03pm 9.9 -1.9 9.1 95 0.4 NW 61 80 33 43 - - 0.6
24/11:00pm 10.0 -2.2 8.8 92 0.6 NW 63 80 34 43 - - 0.4
24/10:30pm 10.8 -1.0 7.3 79 1.7 NW 59 83 32 45 - - 0.4
24/10:26pm 10.4 -1.7 7.6 83 1.4 NW 61 87 33 47 - - 0.4
24/10:23pm 10.4 -2.8 7.8 84 1.3 NW 67 95 36 51 - - 0.4
24/10:00pm 10.4 -3.6 8.5 88 1.0 NW 72 93 39 50 - - 0.4
24/09:30pm 10.4 -2.7 8.3 87 1.0 NW 67 91 36 49 - - 0.4
24/09:00pm 10.1 -2.8 9.0 93 0.6 NW 67 93 36 50 - - 0.4
24/08:30pm 10.0 -3.8 9.5 97 0.3 NW 72 93 39 50 - - 0.4
24/08:25pm 10.0 -3.2 9.4 96 0.3 NW 69 93 37 50 - - 0.4
24/08:00pm 10.1 -0.7 10.1 100 0.0 NW 57 76 31 41 - - 0.4
24/07:30pm 10.7 0.1 9.9 95 0.4 NW 56 85 30 46 - - 0.0
24/07:15pm 10.7 -0.3 10.5 99 0.1 NW 59 93 32 50 - - 0.0
24/07:00pm 10.5 0.4 10.3 99 0.1 NNW 54 72 29 39 - - 0.0
24/06:35pm 10.6 -0.1 9.7 94 0.5 NNW 56 74 30 40 - - 0.0
24/06:30pm 10.7 -0.6 9.6 93 0.6 NNW 59 74 32 40 - - 0.0
24/06:00pm 10.7 0.6 9.1 90 0.8 NNW 52 65 28 35 - - 0.0
24/05:33pm 10.9 0.3 8.3 84 1.3 NNW 54 78 29 42 - - 0.0
24/05:30pm 10.9 0.3 8.3 84 1.3 NNW 54 65 29 35 - - 0.0
24/05:01pm 11.4 0.6 7.5 77 1.9 NNW 54 72 29 39 - - 0.0
24/05:00pm 11.4 0.2 7.5 77 1.9 NNW 56 72 30 39 - - 0.0
24/04:40pm 11.5 1.0 7.4 76 2.0 NNW 52 70 28 38 - - 0.0
24/04:30pm 11.5 1.1 7.6 77 1.9 NNW 52 65 28 35 - - 0.0
24/04:00pm 11.7 2.8 7.8 77 1.9 NNW 44 65 24 35 - - 0.0
24/03:55pm 11.7 2.8 7.8 77 1.9 NNW 44 63 24 34 - - 0.0
24/03:30pm 11.6 2.3 7.7 77 1.9 NNW 46 56 25 30 - - 0.0
24/03:24pm 11.6 1.9 7.5 76 2.0 NNW 48 67 26 36 - - 0.0
24/03:00pm 12.5 2.8 7.6 72 2.4 NNW 48 59 26 32 - - 0.0
24/02:30pm 12.7 2.8 8.4 75 2.2 NNW 50 59 27 32 - - 0.0
24/02:00pm 13.4 5.7 8.5 72 2.5 NNW 39 54 21 29 - - 0.0
24/01:30pm 14.5 7.9 9.9 74 2.4 NNW 35 44 19 24 - - 0.0
24/01:10pm 12.8 7.5 9.8 82 1.6 NNW 28 46 15 25 - - 0.0
24/01:00pm 12.0 6.1 9.0 82 1.5 NNW 30 37 16 20 - - 0.0
24/12:30pm 12.8 7.2 10.0 83 1.5 NNW 30 35 16 19 - - 0.0
24/12:00pm 12.4 8.2 9.8 84 1.4 N 22 30 12 16 - - 0.0
24/11:30am 11.7 7.5 9.6 87 1.1 N 22 32 12 17 - - 0.0
24/11:00am 12.0 6.5 9.2 83 1.4 NNW 28 37 15 20 - - 0.0
24/10:30am 13.0 6.8 10.0 82 1.6 NNW 33 44 18 24 - - 0.0
24/10:00am 12.5 7.2 12.5 100 0.0 NNW 32 39 17 21 - - 0.0
24/09:30am 10.9 6.6 10.9 100 0.0 NNW 24 28 13 15 - - 0.0
24/09:00am 10.5 7.1 10.5 100 0.0 NNW 19 20 10 11 - - 0.4
24/08:30am 10.6 9.7 10.6 100 0.0 NNW 6 11 3 6 - - 0.4
24/08:00am 9.8 7.7 9.8 100 0.0 W 11 15 6 8 - - 0.4
24/07:30am 9.9 6.1 9.9 100 0.0 N 20 26 11 14 - - 0.4
24/07:00am 9.7 6.4 9.7 100 0.0 NNW 17 24 9 13 - - 0.2
24/06:30am 9.6 7.8 9.6 100 0.0 NW 9 15 5 8 - - 0.2
24/06:00am 9.4 8.2 9.4 100 0.0 W 6 9 3 5 - - 0.2
24/05:30am 9.5 8.7 9.5 100 0.0 NW 4 13 2 7 - - 0.2
24/05:00am 9.4 9.3 9.4 100 0.0 CALM 0 0 0 0 - - 0.2
24/04:30am 9.6 8.4 9.6 100 0.0 W 6 9 3 5 - - 0.2
24/04:00am 9.8 9.4 9.7 99 0.1 NW 2 6 1 3 - - 0.2
24/03:30am 10.0 8.7 9.9 99 0.1 NW 7 11 4 6 - - 0.2
24/03:00am 9.8 9.4 9.8 100 0.0 NE 2 15 1 8 - - 0.2
24/02:30am 9.9 8.6 9.9 100 0.0 WNW 7 11 4 6 - - 0.2
24/02:00am 9.8 8.1 9.8 100 0.0 NW 9 13 5 7 - - 0.2
24/01:30am 9.9 7.5 9.9 100 0.0 NW 13 17 7 9 - - 0.2
24/01:00am 9.9 8.6 9.9 100 0.0 NW 7 9 4 5 - - 0.2
24/12:30am 10.0 8.0 10.0 100 0.0 WNW 11 15 6 8 - - 0.2
24/12:00am 10.0 7.6 10.0 100 0.0 NW 13 20 7 11 - - 0.2
 
Date/Time
EST
Temp
°C
App
Temp
°C
Dew
Point
°C
Rel
Hum
%
Delta-T
°C
Wind Press
QNH
hPa
Press
MSL
hPa
Rain since
9am
mm
Dir  Spd
km/h
Gust
km/h
Spd
kts
Gust
kts
23/11:30pm 10.1 8.5 10.1 100 0.0 NW 9 11 5 6 - - 0.2
23/11:00pm 10.2 7.8 10.2 100 0.0 NW 13 17 7 9 - - 0.2
23/10:30pm 10.1 7.7 10.1 100 0.0 NW 13 20 7 11 - - 0.2
23/10:00pm 9.9 7.5 9.9 100 0.0 NW 13 17 7 9 - - 0.2

Other formats

Comma delimited format used in spreadsheet applications
http://www.bom.gov.au/fwo/IDT60801/IDT60801.95958.axf

JavaScript Object Notation format (JSON) in row-major order
http://www.bom.gov.au/fwo/IDT60801/IDT60801.95958.json

Data quality

Most of these data are generated automatically and are frequently updated. Quality checks on data are not normally performed. It is possible for incorrect values to appear. Refer to information at About Latest Weather Observations and please check the disclaimer before using these data.